sensor_id;sensor_type;location;lat;lon;timestamp;temperature;humidity
23087;DHT22;11712;51.134;4.156;2022-12-26T00:00:54;10.30;99.90
23087;DHT22;11712;51.134;4.156;2022-12-26T00:03:20;10.40;99.90
23087;DHT22;11712;51.134;4.156;2022-12-26T00:05:45;10.50;99.90
23087;DHT22;11712;51.134;4.156;2022-12-26T00:08:11;10.60;99.90
23087;DHT22;11712;51.134;4.156;2022-12-26T00:10:37;10.60;99.90
23087;DHT22;11712;51.134;4.156;2022-12-26T00:13:02;10.50;99.90
23087;DHT22;11712;51.134;4.156;2022-12-26T00:15:28;10.50;99.90
23087;DHT22;11712;51.134;4.156;2022-12-26T00:17:54;10.60;99.90
23087;DHT22;11712;51.134;4.156;2022-12-26T00:20:20;10.50;99.90
23087;DHT22;11712;51.134;4.156;2022-12-26T00:22:46;10.50;99.90
23087;DHT22;11712;51.134;4.156;2022-12-26T00:25:12;10.60;99.90
23087;DHT22;11712;51.134;4.156;2022-12-26T00:27:38;10.70;99.90
23087;DHT22;11712;51.134;4.156;2022-12-26T00:30:04;10.60;99.90
23087;DHT22;11712;51.134;4.156;2022-12-26T00:32:29;10.60;99.90
23087;DHT22;11712;51.134;4.156;2022-12-26T00:34:55;10.50;99.90
23087;DHT22;11712;51.134;4.156;2022-12-26T00:37:21;10.50;99.90
23087;DHT22;11712;51.134;4.156;2022-12-26T00:39:46;10.50;99.90
23087;DHT22;11712;51.134;4.156;2022-12-26T00:42:12;10.50;99.90
23087;DHT22;11712;51.134;4.156;2022-12-26T00:44:37;10.50;99.90
23087;DHT22;11712;51.134;4.156;2022-12-26T00:47:03;10.50;99.90
23087;DHT22;11712;51.134;4.156;2022-12-26T00:49:29;10.60;99.90
23087;DHT22;11712;51.134;4.156;2022-12-26T00:51:54;10.50;99.90
23087;DHT22;11712;51.134;4.156;2022-12-26T00:54:20;10.50;99.90
23087;DHT22;11712;51.134;4.156;2022-12-26T00:56:46;10.50;99.90
23087;DHT22;11712;51.134;4.156;2022-12-26T00:59:11;10.50;99.90
23087;DHT22;11712;51.134;4.156;2022-12-26T01:01:37;10.50;99.90
23087;DHT22;11712;51.134;4.156;2022-12-26T01:04:03;10.60;99.90
23087;DHT22;11712;51.134;4.156;2022-12-26T01:06:29;10.60;99.90
23087;DHT22;11712;51.134;4.156;2022-12-26T01:08:55;10.60;99.90
23087;DHT22;11712;51.134;4.156;2022-12-26T01:11:21;10.70;99.90
23087;DHT22;11712;51.134;4.156;2022-12-26T01:14:13;10.60;99.90
23087;DHT22;11712;51.134;4.156;2022-12-26T01:16:41;10.50;99.90
23087;DHT22;11712;51.134;4.156;2022-12-26T01:19:08;10.50;99.90
23087;DHT22;11712;51.134;4.156;2022-12-26T01:21:33;10.40;99.90
23087;DHT22;11712;51.134;4.156;2022-12-26T01:23:59;10.40;99.90
23087;DHT22;11712;51.134;4.156;2022-12-26T01:26:25;10.40;99.90
23087;DHT22;11712;51.134;4.156;2022-12-26T01:28:51;10.50;99.90
23087;DHT22;11712;51.134;4.156;2022-12-26T01:31:18;10.40;99.90
23087;DHT22;11712;51.134;4.156;2022-12-26T01:33:45;10.50;99.90
23087;DHT22;11712;51.134;4.156;2022-12-26T01:36:11;10.40;99.90
23087;DHT22;11712;51.134;4.156;2022-12-26T01:38:37;10.30;99.90
23087;DHT22;11712;51.134;4.156;2022-12-26T01:41:02;10.30;99.90
23087;DHT22;11712;51.134;4.156;2022-12-26T01:46:16;10.20;99.90
23087;DHT22;11712;51.134;4.156;2022-12-26T01:48:44;10.20;99.90
23087;DHT22;11712;51.134;4.156;2022-12-26T01:51:11;10.00;99.90
23087;DHT22;11712;51.134;4.156;2022-12-26T01:53:45;10.00;99.90
23087;DHT22;11712;51.134;4.156;2022-12-26T01:56:15;9.90;99.90
23087;DHT22;11712;51.134;4.156;2022-12-26T01:58:50;9.90;99.90
23087;DHT22;11712;51.134;4.156;2022-12-26T02:01:18;9.90;99.90
23087;DHT22;11712;51.134;4.156;2022-12-26T02:03:45;9.80;99.90
23087;DHT22;11712;51.134;4.156;2022-12-26T02:06:31;9.80;99.90
23087;DHT22;11712;51.134;4.156;2022-12-26T02:08:57;9.70;99.90
23087;DHT22;11712;51.134;4.156;2022-12-26T02:11:32;9.70;99.90
23087;DHT22;11712;51.134;4.156;2022-12-26T02:13:59;9.60;99.90
23087;DHT22;11712;51.134;4.156;2022-12-26T02:16:26;9.70;99.90
23087;DHT22;11712;51.134;4.156;2022-12-26T02:18:52;9.60;99.90
23087;DHT22;11712;51.134;4.156;2022-12-26T02:21:44;9.60;99.90
23087;DHT22;11712;51.134;4.156;2022-12-26T02:27:29;9.50;99.90
23087;DHT22;11712;51.134;4.156;2022-12-26T02:30:22;9.50;99.90
23087;DHT22;11712;51.134;4.156;2022-12-26T02:33:12;9.50;99.90
23087;DHT22;11712;51.134;4.156;2022-12-26T02:36:24;9.40;99.90
23087;DHT22;11712;51.134;4.156;2022-12-26T02:44:42;9.20;99.90
23087;DHT22;11712;51.134;4.156;2022-12-26T02:50:38;9.20;99.90
23087;DHT22;11712;51.134;4.156;2022-12-26T02:53:27;9.10;99.90
23087;DHT22;11712;51.134;4.156;2022-12-26T02:56:36;9.20;99.90
23087;DHT22;11712;51.134;4.156;2022-12-26T02:59:48;9.10;99.90
23087;DHT22;11712;51.134;4.156;2022-12-26T03:08:45;9.10;99.90
23087;DHT22;11712;51.134;4.156;2022-12-26T03:11:35;9.10;99.90
23087;DHT22;11712;51.134;4.156;2022-12-26T03:14:31;9.10;99.90
23087;DHT22;11712;51.134;4.156;2022-12-26T03:17:05;9.10;99.90
23087;DHT22;11712;51.134;4.156;2022-12-26T03:19:46;9.10;99.90
23087;DHT22;11712;51.134;4.156;2022-12-26T03:25:48;9.00;99.90
23087;DHT22;11712;51.134;4.156;2022-12-26T03:28:34;9.00;99.90
23087;DHT22;11712;51.134;4.156;2022-12-26T03:31:04;9.10;99.90
23087;DHT22;11712;51.134;4.156;2022-12-26T03:33:33;9.10;99.90
23087;DHT22;11712;51.134;4.156;2022-12-26T03:39:14;9.10;99.90
23087;DHT22;11712;51.134;4.156;2022-12-26T03:42:11;9.20;99.90
23087;DHT22;11712;51.134;4.156;2022-12-26T03:45:01;9.20;99.90
23087;DHT22;11712;51.134;4.156;2022-12-26T03:48:07;9.20;99.90
23087;DHT22;11712;51.134;4.156;2022-12-26T03:51:30;9.20;99.90
23087;DHT22;11712;51.134;4.156;2022-12-26T03:57:26;9.30;99.90
23087;DHT22;11712;51.134;4.156;2022-12-26T04:00:14;9.30;99.90
23087;DHT22;11712;51.134;4.156;2022-12-26T04:03:05;9.30;99.90
23087;DHT22;11712;51.134;4.156;2022-12-26T04:05:52;9.40;99.90
23087;DHT22;11712;51.134;4.156;2022-12-26T04:08:58;9.30;99.90
23087;DHT22;11712;51.134;4.156;2022-12-26T04:11:44;9.30;99.90
23087;DHT22;11712;51.134;4.156;2022-12-26T04:18:14;9.30;99.90
23087;DHT22;11712;51.134;4.156;2022-12-26T04:21:28;9.30;99.90
23087;DHT22;11712;51.134;4.156;2022-12-26T04:24:19;9.30;99.90
23087;DHT22;11712;51.134;4.156;2022-12-26T04:27:08;9.20;99.90
23087;DHT22;11712;51.134;4.156;2022-12-26T04:29:53;9.30;99.90
23087;DHT22;11712;51.134;4.156;2022-12-26T04:32:47;9.30;99.90
23087;DHT22;11712;51.134;4.156;2022-12-26T04:35:54;9.40;99.90
23087;DHT22;11712;51.134;4.156;2022-12-26T04:38:42;9.50;99.90
23087;DHT22;11712;51.134;4.156;2022-12-26T04:41:28;9.60;99.90
23087;DHT22;11712;51.134;4.156;2022-12-26T04:44:14;9.60;99.90
23087;DHT22;11712;51.134;4.156;2022-12-26T04:46:44;9.70;99.90
23087;DHT22;11712;51.134;4.156;2022-12-26T04:49:12;9.70;99.90
23087;DHT22;11712;51.134;4.156;2022-12-26T04:51:58;9.80;99.90
23087;DHT22;11712;51.134;4.156;2022-12-26T04:54:24;9.80;99.90
23087;DHT22;11712;51.134;4.156;2022-12-26T04:56:51;9.90;99.90
23087;DHT22;11712;51.134;4.156;2022-12-26T04:59:17;9.90;99.90
23087;DHT22;11712;51.134;4.156;2022-12-26T05:01:43;9.90;99.90
23087;DHT22;11712;51.134;4.156;2022-12-26T05:04:27;9.90;99.90
23087;DHT22;11712;51.134;4.156;2022-12-26T05:07:33;10.00;99.90
23087;DHT22;11712;51.134;4.156;2022-12-26T05:10:24;10.10;99.90
23087;DHT22;11712;51.134;4.156;2022-12-26T05:12:50;10.10;99.90
23087;DHT22;11712;51.134;4.156;2022-12-26T05:15:17;10.10;99.90
23087;DHT22;11712;51.134;4.156;2022-12-26T05:17:42;10.00;99.90
23087;DHT22;11712;51.134;4.156;2022-12-26T05:20:27;10.00;99.90
23087;DHT22;11712;51.134;4.156;2022-12-26T05:26:00;9.90;99.90
23087;DHT22;11712;51.134;4.156;2022-12-26T05:28:51;10.00;99.90
23087;DHT22;11712;51.134;4.156;2022-12-26T05:31:17;9.90;99.90
23087;DHT22;11712;51.134;4.156;2022-12-26T05:33:43;9.90;99.90
23087;DHT22;11712;51.134;4.156;2022-12-26T05:36:32;9.90;99.90
23087;DHT22;11712;51.134;4.156;2022-12-26T05:38:59;10.10;99.90
23087;DHT22;11712;51.134;4.156;2022-12-26T05:41:26;10.00;99.90
23087;DHT22;11712;51.134;4.156;2022-12-26T05:43:51;10.00;99.90
23087;DHT22;11712;51.134;4.156;2022-12-26T05:46:17;9.90;99.90
23087;DHT22;11712;51.134;4.156;2022-12-26T05:48:43;9.90;99.90
23087;DHT22;11712;51.134;4.156;2022-12-26T05:51:09;9.80;99.90
23087;DHT22;11712;51.134;4.156;2022-12-26T05:53:34;9.70;99.90
23087;DHT22;11712;51.134;4.156;2022-12-26T05:56:05;9.70;99.90
23087;DHT22;11712;51.134;4.156;2022-12-26T05:58:31;9.70;99.90
23087;DHT22;11712;51.134;4.156;2022-12-26T06:01:14;9.70;99.90
23087;DHT22;11712;51.134;4.156;2022-12-26T06:03:41;9.70;99.90
23087;DHT22;11712;51.134;4.156;2022-12-26T06:06:08;9.60;99.90
23087;DHT22;11712;51.134;4.156;2022-12-26T06:08:35;9.60;99.90
23087;DHT22;11712;51.134;4.156;2022-12-26T06:11:05;9.60;99.90
23087;DHT22;11712;51.134;4.156;2022-12-26T06:13:32;9.70;99.90
23087;DHT22;11712;51.134;4.156;2022-12-26T06:15:57;9.70;99.90
23087;DHT22;11712;51.134;4.156;2022-12-26T06:18:23;9.80;99.90
23087;DHT22;11712;51.134;4.156;2022-12-26T06:20:50;9.80;99.90
23087;DHT22;11712;51.134;4.156;2022-12-26T06:23:15;9.90;99.90
23087;DHT22;11712;51.134;4.156;2022-12-26T06:25:41;9.90;99.90
23087;DHT22;11712;51.134;4.156;2022-12-26T06:28:07;9.80;99.90
23087;DHT22;11712;51.134;4.156;2022-12-26T06:30:32;9.80;99.90
23087;DHT22;11712;51.134;4.156;2022-12-26T06:32:58;9.80;99.90
23087;DHT22;11712;51.134;4.156;2022-12-26T06:35:24;9.80;99.90
23087;DHT22;11712;51.134;4.156;2022-12-26T06:37:49;9.80;99.90
23087;DHT22;11712;51.134;4.156;2022-12-26T06:40:15;9.90;99.90
23087;DHT22;11712;51.134;4.156;2022-12-26T06:42:40;9.90;99.90
23087;DHT22;11712;51.134;4.156;2022-12-26T06:45:06;9.90;99.90
23087;DHT22;11712;51.134;4.156;2022-12-26T06:47:32;9.90;99.90
23087;DHT22;11712;51.134;4.156;2022-12-26T06:49:58;10.00;99.90
23087;DHT22;11712;51.134;4.156;2022-12-26T06:52:23;10.00;99.90
23087;DHT22;11712;51.134;4.156;2022-12-26T06:56:22;10.00;99.90
23087;DHT22;11712;51.134;4.156;2022-12-26T06:58:52;10.10;99.90
23087;DHT22;11712;51.134;4.156;2022-12-26T07:01:18;10.10;99.90
23087;DHT22;11712;51.134;4.156;2022-12-26T07:03:44;10.10;99.90
23087;DHT22;11712;51.134;4.156;2022-12-26T07:06:31;10.10;99.90
23087;DHT22;11712;51.134;4.156;2022-12-26T07:09:12;10.10;99.90
23087;DHT22;11712;51.134;4.156;2022-12-26T07:11:40;10.10;99.90
23087;DHT22;11712;51.134;4.156;2022-12-26T07:14:07;10.10;99.90
23087;DHT22;11712;51.134;4.156;2022-12-26T07:16:34;10.10;99.90
23087;DHT22;11712;51.134;4.156;2022-12-26T07:19:00;10.10;99.90
23087;DHT22;11712;51.134;4.156;2022-12-26T07:21:26;10.20;99.90
23087;DHT22;11712;51.134;4.156;2022-12-26T07:23:53;10.20;99.90
23087;DHT22;11712;51.134;4.156;2022-12-26T07:26:19;10.20;99.90
23087;DHT22;11712;51.134;4.156;2022-12-26T07:28:45;10.10;99.90
23087;DHT22;11712;51.134;4.156;2022-12-26T07:31:18;10.10;99.90
23087;DHT22;11712;51.134;4.156;2022-12-26T07:33:52;10.10;99.90
23087;DHT22;11712;51.134;4.156;2022-12-26T07:36:18;10.10;99.90
23087;DHT22;11712;51.134;4.156;2022-12-26T07:38:44;10.10;99.90
23087;DHT22;11712;51.134;4.156;2022-12-26T07:41:10;10.00;99.90
23087;DHT22;11712;51.134;4.156;2022-12-26T07:43:54;10.00;99.90
23087;DHT22;11712;51.134;4.156;2022-12-26T07:46:20;9.90;99.90
23087;DHT22;11712;51.134;4.156;2022-12-26T07:48:46;10.10;99.90
23087;DHT22;11712;51.134;4.156;2022-12-26T07:51:11;10.20;99.90
23087;DHT22;11712;51.134;4.156;2022-12-26T07:53:37;10.20;99.90
23087;DHT22;11712;51.134;4.156;2022-12-26T07:56:03;10.10;99.90
23087;DHT22;11712;51.134;4.156;2022-12-26T07:58:29;10.10;99.90
23087;DHT22;11712;51.134;4.156;2022-12-26T08:00:54;10.10;99.90
23087;DHT22;11712;51.134;4.156;2022-12-26T08:03:20;10.10;99.90
23087;DHT22;11712;51.134;4.156;2022-12-26T08:05:47;10.10;99.90
23087;DHT22;11712;51.134;4.156;2022-12-26T08:08:13;10.20;99.90
23087;DHT22;11712;51.134;4.156;2022-12-26T08:10:39;10.20;99.90
23087;DHT22;11712;51.134;4.156;2022-12-26T08:13:04;10.20;99.90
23087;DHT22;11712;51.134;4.156;2022-12-26T08:15:30;10.30;99.90
23087;DHT22;11712;51.134;4.156;2022-12-26T08:17:56;10.30;99.90
23087;DHT22;11712;51.134;4.156;2022-12-26T08:20:21;10.40;99.90
23087;DHT22;11712;51.134;4.156;2022-12-26T08:22:47;10.40;99.90
23087;DHT22;11712;51.134;4.156;2022-12-26T08:25:13;10.40;99.90
23087;DHT22;11712;51.134;4.156;2022-12-26T08:27:39;10.40;99.90
23087;DHT22;11712;51.134;4.156;2022-12-26T08:30:05;10.40;99.90
23087;DHT22;11712;51.134;4.156;2022-12-26T08:32:30;10.50;99.90
23087;DHT22;11712;51.134;4.156;2022-12-26T08:34:56;10.50;99.90
23087;DHT22;11712;51.134;4.156;2022-12-26T08:37:22;10.50;99.90
23087;DHT22;11712;51.134;4.156;2022-12-26T08:39:51;10.80;99.90
23087;DHT22;11712;51.134;4.156;2022-12-26T08:42:21;10.70;99.90
23087;DHT22;11712;51.134;4.156;2022-12-26T08:44:47;10.80;99.90
23087;DHT22;11712;51.134;4.156;2022-12-26T08:47:14;10.80;99.90
23087;DHT22;11712;51.134;4.156;2022-12-26T08:49:39;10.80;99.90
23087;DHT22;11712;51.134;4.156;2022-12-26T08:52:06;10.80;99.90
23087;DHT22;11712;51.134;4.156;2022-12-26T08:54:32;10.80;99.90
23087;DHT22;11712;51.134;4.156;2022-12-26T08:56:58;10.80;99.90
23087;DHT22;11712;51.134;4.156;2022-12-26T08:59:24;10.80;99.90
23087;DHT22;11712;51.134;4.156;2022-12-26T09:01:49;10.70;99.90
23087;DHT22;11712;51.134;4.156;2022-12-26T09:04:15;10.70;99.90
23087;DHT22;11712;51.134;4.156;2022-12-26T09:06:41;10.70;99.90
23087;DHT22;11712;51.134;4.156;2022-12-26T09:09:09;10.70;99.90
23087;DHT22;11712;51.134;4.156;2022-12-26T09:11:36;10.70;99.90
23087;DHT22;11712;51.134;4.156;2022-12-26T09:14:03;10.60;99.90
23087;DHT22;11712;51.134;4.156;2022-12-26T09:16:32;10.60;99.90
23087;DHT22;11712;51.134;4.156;2022-12-26T09:19:01;10.50;99.90
23087;DHT22;11712;51.134;4.156;2022-12-26T09:21:28;10.60;99.90
23087;DHT22;11712;51.134;4.156;2022-12-26T09:23:59;10.60;99.90
23087;DHT22;11712;51.134;4.156;2022-12-26T09:26:25;10.60;99.90
23087;DHT22;11712;51.134;4.156;2022-12-26T09:28:51;10.70;99.90
23087;DHT22;11712;51.134;4.156;2022-12-26T09:31:22;10.70;99.90
23087;DHT22;11712;51.134;4.156;2022-12-26T09:33:48;10.70;99.90
23087;DHT22;11712;51.134;4.156;2022-12-26T09:36:17;10.70;99.90
23087;DHT22;11712;51.134;4.156;2022-12-26T09:38:43;10.80;99.90
23087;DHT22;11712;51.134;4.156;2022-12-26T09:49:25;11.00;99.90
23087;DHT22;11712;51.134;4.156;2022-12-26T09:51:55;11.20;99.90
23087;DHT22;11712;51.134;4.156;2022-12-26T09:54:35;11.40;99.90
23087;DHT22;11712;51.134;4.156;2022-12-26T09:57:08;11.30;99.90
23087;DHT22;11712;51.134;4.156;2022-12-26T09:59:45;11.30;99.90
23087;DHT22;11712;51.134;4.156;2022-12-26T10:02:19;11.00;99.90
23087;DHT22;11712;51.134;4.156;2022-12-26T10:04:46;10.60;99.90
23087;DHT22;11712;51.134;4.156;2022-12-26T10:07:44;10.40;99.90
23087;DHT22;11712;51.134;4.156;2022-12-26T10:10:13;10.30;99.90
23087;DHT22;11712;51.134;4.156;2022-12-26T10:24:13;10.10;99.90
23087;DHT22;11712;51.134;4.156;2022-12-26T10:26:49;10.00;99.90
23087;DHT22;11712;51.134;4.156;2022-12-26T10:29:22;10.00;99.90
23087;DHT22;11712;51.134;4.156;2022-12-26T10:42:33;10.10;99.90
23087;DHT22;11712;51.134;4.156;2022-12-26T10:45:00;10.20;99.90
23087;DHT22;11712;51.134;4.156;2022-12-26T10:47:32;10.20;99.90
23087;DHT22;11712;51.134;4.156;2022-12-26T10:49:59;10.30;99.90
23087;DHT22;11712;51.134;4.156;2022-12-26T10:52:37;10.30;99.90
23087;DHT22;11712;51.134;4.156;2022-12-26T10:55:05;10.20;99.90
23087;DHT22;11712;51.134;4.156;2022-12-26T10:57:34;10.20;99.90
23087;DHT22;11712;51.134;4.156;2022-12-26T11:00:06;10.00;99.90
23087;DHT22;11712;51.134;4.156;2022-12-26T11:02:32;10.00;99.90
23087;DHT22;11712;51.134;4.156;2022-12-26T11:05:06;9.90;99.90
23087;DHT22;11712;51.134;4.156;2022-12-26T11:07:39;9.90;99.90
23087;DHT22;11712;51.134;4.156;2022-12-26T11:10:17;9.90;99.90
23087;DHT22;11712;51.134;4.156;2022-12-26T11:12:46;9.70;99.90
23087;DHT22;11712;51.134;4.156;2022-12-26T11:15:37;9.80;99.90
23087;DHT22;11712;51.134;4.156;2022-12-26T11:18:14;9.90;99.90
23087;DHT22;11712;51.134;4.156;2022-12-26T11:20:41;10.00;99.90
23087;DHT22;11712;51.134;4.156;2022-12-26T11:23:27;10.00;99.90
23087;DHT22;11712;51.134;4.156;2022-12-26T11:25:55;9.90;99.90
23087;DHT22;11712;51.134;4.156;2022-12-26T11:30:53;9.70;99.90
23087;DHT22;11712;51.134;4.156;2022-12-26T11:33:26;9.70;99.90
23087;DHT22;11712;51.134;4.156;2022-12-26T11:38:25;9.80;99.90
23087;DHT22;11712;51.134;4.156;2022-12-26T11:41:13;9.90;99.90
23087;DHT22;11712;51.134;4.156;2022-12-26T11:46:46;9.70;99.90
23087;DHT22;11712;51.134;4.156;2022-12-26T11:49:31;9.60;99.90
23087;DHT22;11712;51.134;4.156;2022-12-26T11:52:00;9.60;99.90
23087;DHT22;11712;51.134;4.156;2022-12-26T11:57:07;9.50;99.90
23087;DHT22;11712;51.134;4.156;2022-12-26T11:59:34;9.40;99.90
23087;DHT22;11712;51.134;4.156;2022-12-26T12:02:24;9.40;99.90
23087;DHT22;11712;51.134;4.156;2022-12-26T12:04:54;9.50;99.90
23087;DHT22;11712;51.134;4.156;2022-12-26T12:10:50;9.40;99.90
23087;DHT22;11712;51.134;4.156;2022-12-26T12:13:35;9.30;99.90
23087;DHT22;11712;51.134;4.156;2022-12-26T12:20:26;9.30;99.90
23087;DHT22;11712;51.134;4.156;2022-12-26T12:26:03;9.20;99.90
23087;DHT22;11712;51.134;4.156;2022-12-26T12:33:58;9.10;99.90
23087;DHT22;11712;51.134;4.156;2022-12-26T12:39:39;9.30;99.90
23087;DHT22;11712;51.134;4.156;2022-12-26T12:45:08;9.30;99.90
23087;DHT22;11712;51.134;4.156;2022-12-26T12:50:25;9.60;99.90
23087;DHT22;11712;51.134;4.156;2022-12-26T12:53:02;9.50;99.90
23087;DHT22;11712;51.134;4.156;2022-12-26T12:55:54;9.40;99.90
23087;DHT22;11712;51.134;4.156;2022-12-26T12:58:42;9.30;99.90
23087;DHT22;11712;51.134;4.156;2022-12-26T13:01:23;9.10;99.90
23087;DHT22;11712;51.134;4.156;2022-12-26T13:03:57;9.10;99.90
23087;DHT22;11712;51.134;4.156;2022-12-26T13:06:35;9.00;99.90
23087;DHT22;11712;51.134;4.156;2022-12-26T13:09:29;8.90;99.90
23087;DHT22;11712;51.134;4.156;2022-12-26T13:12:07;8.90;99.90
23087;DHT22;11712;51.134;4.156;2022-12-26T13:14:45;8.90;99.90
23087;DHT22;11712;51.134;4.156;2022-12-26T13:17:18;9.00;99.90
23087;DHT22;11712;51.134;4.156;2022-12-26T13:20:03;8.90;99.90
23087;DHT22;11712;51.134;4.156;2022-12-26T13:22:39;8.80;99.90
23087;DHT22;11712;51.134;4.156;2022-12-26T13:25:27;8.70;99.90
23087;DHT22;11712;51.134;4.156;2022-12-26T13:27:57;8.60;99.90
23087;DHT22;11712;51.134;4.156;2022-12-26T13:30:34;8.50;99.90
23087;DHT22;11712;51.134;4.156;2022-12-26T13:33:00;8.40;99.90
23087;DHT22;11712;51.134;4.156;2022-12-26T13:36:01;8.30;99.90
23087;DHT22;11712;51.134;4.156;2022-12-26T13:41:21;8.30;99.90
23087;DHT22;11712;51.134;4.156;2022-12-26T13:44:26;8.40;99.90
23087;DHT22;11712;51.134;4.156;2022-12-26T13:46:53;8.30;99.90
23087;DHT22;11712;51.134;4.156;2022-12-26T13:49:38;8.40;99.90
23087;DHT22;11712;51.134;4.156;2022-12-26T14:05:32;8.20;99.90
23087;DHT22;11712;51.134;4.156;2022-12-26T14:08:27;8.20;99.90
23087;DHT22;11712;51.134;4.156;2022-12-26T14:25:51;8.20;99.90
23087;DHT22;11712;51.134;4.156;2022-12-26T14:29:05;8.10;99.90
23087;DHT22;11712;51.134;4.156;2022-12-26T14:37:24;7.90;99.90
23087;DHT22;11712;51.134;4.156;2022-12-26T14:45:48;7.90;99.90
23087;DHT22;11712;51.134;4.156;2022-12-26T14:50:54;7.90;99.90
23087;DHT22;11712;51.134;4.156;2022-12-26T14:58:36;7.80;99.90
23087;DHT22;11712;51.134;4.156;2022-12-26T15:04:06;7.70;99.90
23087;DHT22;11712;51.134;4.156;2022-12-26T15:06:48;7.70;99.90
23087;DHT22;11712;51.134;4.156;2022-12-26T15:20:43;7.40;99.90
23087;DHT22;11712;51.134;4.156;2022-12-26T15:37:07;7.00;99.90
23087;DHT22;11712;51.134;4.156;2022-12-26T15:39:55;7.10;99.90
23087;DHT22;11712;51.134;4.156;2022-12-26T15:45:29;6.80;99.90
23087;DHT22;11712;51.134;4.156;2022-12-26T15:56:27;6.30;99.90
23087;DHT22;11712;51.134;4.156;2022-12-26T16:01:41;6.20;99.90
23087;DHT22;11712;51.134;4.156;2022-12-26T16:09:38;6.10;99.90
23087;DHT22;11712;51.134;4.156;2022-12-26T16:12:25;6.00;99.90
23087;DHT22;11712;51.134;4.156;2022-12-26T16:17:36;6.10;99.90
23087;DHT22;11712;51.134;4.156;2022-12-26T16:20:41;6.10;99.90
23087;DHT22;11712;51.134;4.156;2022-12-26T16:23:27;5.90;99.90
23087;DHT22;11712;51.134;4.156;2022-12-26T16:26:00;5.60;99.90
23087;DHT22;11712;51.134;4.156;2022-12-26T16:28:42;5.50;99.90
23087;DHT22;11712;51.134;4.156;2022-12-26T16:31:19;5.20;99.90
23087;DHT22;11712;51.134;4.156;2022-12-26T16:33:45;5.10;99.90
23087;DHT22;11712;51.134;4.156;2022-12-26T16:36:20;5.10;99.90
23087;DHT22;11712;51.134;4.156;2022-12-26T16:38:46;5.10;99.90
23087;DHT22;11712;51.134;4.156;2022-12-26T16:41:22;5.00;99.90
23087;DHT22;11712;51.134;4.156;2022-12-26T16:43:50;4.90;99.90
23087;DHT22;11712;51.134;4.156;2022-12-26T16:46:16;4.80;99.90
23087;DHT22;11712;51.134;4.156;2022-12-26T16:49:00;4.80;99.90
23087;DHT22;11712;51.134;4.156;2022-12-26T16:53:54;4.90;99.90
23087;DHT22;11712;51.134;4.156;2022-12-26T16:56:37;4.80;99.90
23087;DHT22;11712;51.134;4.156;2022-12-26T16:59:21;4.90;99.90
23087;DHT22;11712;51.134;4.156;2022-12-26T17:01:49;5.00;99.90
23087;DHT22;11712;51.134;4.156;2022-12-26T17:04:22;4.90;99.90
23087;DHT22;11712;51.134;4.156;2022-12-26T17:06:52;4.80;99.90
23087;DHT22;11712;51.134;4.156;2022-12-26T17:09:19;4.80;99.90
23087;DHT22;11712;51.134;4.156;2022-12-26T17:11:58;4.90;99.90
23087;DHT22;11712;51.134;4.156;2022-12-26T17:14:29;4.70;99.90
23087;DHT22;11712;51.134;4.156;2022-12-26T17:17:01;4.60;99.90
23087;DHT22;11712;51.134;4.156;2022-12-26T17:19:28;4.50;99.90
23087;DHT22;11712;51.134;4.156;2022-12-26T17:24:46;4.40;99.90
23087;DHT22;11712;51.134;4.156;2022-12-26T17:27:25;4.40;99.90
23087;DHT22;11712;51.134;4.156;2022-12-26T17:30:00;4.30;99.90
23087;DHT22;11712;51.134;4.156;2022-12-26T17:32:44;4.10;99.90
23087;DHT22;11712;51.134;4.156;2022-12-26T17:35:13;4.00;99.90
23087;DHT22;11712;51.134;4.156;2022-12-26T17:37:40;4.00;99.90
23087;DHT22;11712;51.134;4.156;2022-12-26T17:42:46;3.90;99.90
23087;DHT22;11712;51.134;4.156;2022-12-26T17:45:24;3.70;99.90
23087;DHT22;11712;51.134;4.156;2022-12-26T17:47:52;3.70;99.90
23087;DHT22;11712;51.134;4.156;2022-12-26T17:50:19;3.80;99.90
23087;DHT22;11712;51.134;4.156;2022-12-26T17:52:45;3.80;99.90
23087;DHT22;11712;51.134;4.156;2022-12-26T17:55:24;3.80;99.90
23087;DHT22;11712;51.134;4.156;2022-12-26T17:57:51;3.90;99.90
23087;DHT22;11712;51.134;4.156;2022-12-26T18:00:20;3.90;99.90
23087;DHT22;11712;51.134;4.156;2022-12-26T18:02:46;4.00;99.90
23087;DHT22;11712;51.134;4.156;2022-12-26T18:05:12;3.90;99.90
23087;DHT22;11712;51.134;4.156;2022-12-26T18:07:38;4.00;99.90
23087;DHT22;11712;51.134;4.156;2022-12-26T18:10:05;4.10;99.90
23087;DHT22;11712;51.134;4.156;2022-12-26T18:12:31;4.30;99.90
23087;DHT22;11712;51.134;4.156;2022-12-26T18:14:57;4.30;99.90
23087;DHT22;11712;51.134;4.156;2022-12-26T18:17:22;4.20;99.90
23087;DHT22;11712;51.134;4.156;2022-12-26T18:19:48;4.30;99.90
23087;DHT22;11712;51.134;4.156;2022-12-26T18:22:18;4.30;99.90
23087;DHT22;11712;51.134;4.156;2022-12-26T18:24:44;4.30;99.90
23087;DHT22;11712;51.134;4.156;2022-12-26T18:27:36;4.40;99.90
23087;DHT22;11712;51.134;4.156;2022-12-26T18:30:02;4.40;99.90
23087;DHT22;11712;51.134;4.156;2022-12-26T18:32:30;4.30;99.90
23087;DHT22;11712;51.134;4.156;2022-12-26T18:34:56;4.30;99.90
23087;DHT22;11712;51.134;4.156;2022-12-26T18:37:24;4.30;99.90
23087;DHT22;11712;51.134;4.156;2022-12-26T18:39:51;4.30;99.90
23087;DHT22;11712;51.134;4.156;2022-12-26T18:42:17;4.20;99.90
23087;DHT22;11712;51.134;4.156;2022-12-26T18:44:43;4.20;99.90
23087;DHT22;11712;51.134;4.156;2022-12-26T18:47:12;4.10;99.90
23087;DHT22;11712;51.134;4.156;2022-12-26T18:49:38;4.00;99.90
23087;DHT22;11712;51.134;4.156;2022-12-26T18:52:04;3.90;99.90
23087;DHT22;11712;51.134;4.156;2022-12-26T18:54:30;4.00;99.90
23087;DHT22;11712;51.134;4.156;2022-12-26T18:56:55;4.00;99.90
23087;DHT22;11712;51.134;4.156;2022-12-26T18:59:21;4.00;99.90
23087;DHT22;11712;51.134;4.156;2022-12-26T19:01:47;4.00;99.90
23087;DHT22;11712;51.134;4.156;2022-12-26T19:04:14;4.00;99.90
23087;DHT22;11712;51.134;4.156;2022-12-26T19:06:40;4.00;99.90
23087;DHT22;11712;51.134;4.156;2022-12-26T19:09:08;4.00;99.90
23087;DHT22;11712;51.134;4.156;2022-12-26T19:11:34;3.90;99.90
23087;DHT22;11712;51.134;4.156;2022-12-26T19:13:59;3.90;99.90
23087;DHT22;11712;51.134;4.156;2022-12-26T19:16:25;4.00;99.90
23087;DHT22;11712;51.134;4.156;2022-12-26T19:18:51;3.90;99.90
23087;DHT22;11712;51.134;4.156;2022-12-26T19:21:17;3.90;99.90
23087;DHT22;11712;51.134;4.156;2022-12-26T19:23:45;3.90;99.90
23087;DHT22;11712;51.134;4.156;2022-12-26T19:26:13;3.90;99.90
23087;DHT22;11712;51.134;4.156;2022-12-26T19:28:39;3.90;99.90
23087;DHT22;11712;51.134;4.156;2022-12-26T19:31:11;3.90;99.90
23087;DHT22;11712;51.134;4.156;2022-12-26T19:33:37;3.90;99.90
23087;DHT22;11712;51.134;4.156;2022-12-26T19:36:03;3.90;99.90
23087;DHT22;11712;51.134;4.156;2022-12-26T19:38:29;3.90;99.90
23087;DHT22;11712;51.134;4.156;2022-12-26T19:41:06;4.00;99.90
23087;DHT22;11712;51.134;4.156;2022-12-26T19:43:32;3.90;99.90
23087;DHT22;11712;51.134;4.156;2022-12-26T19:46:00;3.90;99.90
23087;DHT22;11712;51.134;4.156;2022-12-26T19:48:26;3.90;99.90